Fderik Airport


Codes: GQPF/FGD
Name: Fderik Airport
City: Fderik
Country: Mauritania
Elevation: 961 ft.
Wikipedia:

Photos at Fderik Airport


   Photos courtesy of SpottingLog. You can add your own sightings and photos by signing up for a free trial today.



No photos found.

Weather at Fderik Airport


Time (UTC)DescriptionTempratureWindCloud coverageVisibilityPressureHumidity
17-Jun-2024 06:00Clear Sky28°C16 mph, NE0%10000m1009hPa24%
17-Jun-2024 09:00Clear Sky30°C16 mph, NE3%10000m1011hPa23%
17-Jun-2024 12:00Clear Sky38°C18 mph, NE5%10000m1011hPa14%
17-Jun-2024 15:00Clear Sky42°C16 mph, NE4%10000m1008hPa11%
17-Jun-2024 18:00Clear Sky42°C16 mph, NE2%10000m1007hPa11%
17-Jun-2024 21:00Clear Sky36°C16 mph, N0%10000m1009hPa12%
18-Jun-2024 00:00Clear Sky33°C11 mph, NE2%10000m1011hPa14%
18-Jun-2024 03:00Few Clouds30°C9 mph, NE13%10000m1011hPa18%
18-Jun-2024 06:00Few Clouds28°C11 mph, NE22%10000m1012hPa21%
18-Jun-2024 09:00Scattered Clouds33°C11 mph, NE40%10000m1013hPa16%
18-Jun-2024 12:00Scattered Clouds39°C4 mph, NE36%10000m1012hPa14%
18-Jun-2024 15:00Broken Clouds42°C4 mph, N58%10000m1010hPa12%
18-Jun-2024 18:00Broken Clouds42°C11 mph, N59%10000m1008hPa12%
18-Jun-2024 21:00Broken Clouds37°C9 mph, N63%10000m1011hPa14%
19-Jun-2024 00:00Broken Clouds34°C7 mph, NW58%10000m1013hPa17%
19-Jun-2024 03:00Broken Clouds30°C13 mph, N61%10000m1012hPa24%
19-Jun-2024 06:00Broken Clouds27°C11 mph, NE64%10000m1012hPa29%
19-Jun-2024 09:00Broken Clouds30°C13 mph, NE58%10000m1014hPa23%
19-Jun-2024 12:00Broken Clouds37°C13 mph, NE68%10000m1013hPa12%
19-Jun-2024 15:00Broken Clouds40°C13 mph, N55%10000m1011hPa10%
19-Jun-2024 18:00Broken Clouds40°C18 mph, N53%10000m1010hPa11%
19-Jun-2024 21:00Scattered Clouds35°C20 mph, N42%10000m1012hPa16%
20-Jun-2024 00:00Scattered Clouds31°C20 mph, N26%10000m1013hPa22%
20-Jun-2024 03:00Clear Sky27°C16 mph, N2%10000m1012hPa27%
20-Jun-2024 06:00Clear Sky24°C16 mph, N2%10000m1012hPa30%
20-Jun-2024 09:00Clear Sky27°C18 mph, NE0%10000m1014hPa21%
20-Jun-2024 12:00Clear Sky34°C20 mph, N0%10000m1013hPa12%
20-Jun-2024 15:00Clear Sky38°C18 mph, N1%10000m1011hPa9%
20-Jun-2024 18:00Clear Sky38°C18 mph, N1%10000m1010hPa9%
20-Jun-2024 21:00Clear Sky32°C16 mph, N0%10000m1012hPa13%
21-Jun-2024 00:00Clear Sky29°C16 mph, N0%10000m1013hPa19%
21-Jun-2024 03:00Clear Sky26°C16 mph, N0%10000m1013hPa29%
21-Jun-2024 06:00Clear Sky23°C16 mph, N0%10000m1013hPa34%
21-Jun-2024 09:00Clear Sky26°C18 mph, N0%10000m1014hPa24%
21-Jun-2024 12:00Clear Sky34°C18 mph, N0%10000m1013hPa12%
21-Jun-2024 15:00Clear Sky38°C18 mph, N0%10000m1010hPa9%
21-Jun-2024 18:00Clear Sky37°C20 mph, N0%10000m1010hPa10%
21-Jun-2024 21:00Clear Sky32°C13 mph, N2%10000m1012hPa14%
22-Jun-2024 00:00Clear Sky29°C16 mph, N1%10000m1013hPa21%
22-Jun-2024 03:00Clear Sky25°C16 mph, N0%10000m1012hPa33%